Time;durP1;ratioP1;P1;durP2;ratioP2;P2;SDS_P1;SDS_P2;PMS_P1;PMS_P2;Temp;Humidity;BMP_temperature;BMP_pressure;BME280_temperature;BME280_humidity;BME280_pressure;Samples;Min_cycle;Max_cycle;Signal;HPM_P1;HPM_P2
2021/03/09 00:02:12;;;;;;;17.85;7.70;;;-2.20;99.90;;;;;;5038970;28;20116;-74
2021/03/09 00:04:38;;;;;;;21.73;8.52;;;-2.20;99.90;;;;;;5050503;28;20037;-74
2021/03/09 00:07:04;;;;;;;14.68;7.00;;;-2.20;99.90;;;;;;5051062;28;20032;-75
2021/03/09 00:09:29;;;;;;;14.60;7.18;;;-2.20;99.90;;;;;;5051604;28;20036;-74
2021/03/09 00:11:55;;;;;;;17.77;7.60;;;-2.30;99.90;;;;;;5050620;28;20041;-74
2021/03/09 00:14:21;;;;;;;13.10;6.72;;;-2.30;99.90;;;;;;5050595;28;20040;-74
2021/03/09 00:16:46;;;;;;;13.45;7.07;;;-2.30;99.90;;;;;;5051195;28;20037;-74
2021/03/09 00:19:12;;;;;;;13.93;7.00;;;-2.30;99.90;;;;;;5051310;28;20128;-75
2021/03/09 00:21:38;;;;;;;13.55;6.65;;;-2.30;99.90;;;;;;5050706;28;20044;-75
2021/03/09 00:24:04;;;;;;;13.93;7.35;;;-2.30;99.90;;;;;;5083700;28;20499;-74
2021/03/09 00:26:30;;;;;;;16.75;7.57;;;-2.30;99.90;;;;;;5050651;28;20035;-74
2021/03/09 00:28:55;;;;;;;16.73;8.57;;;-2.30;99.90;;;;;;5051113;28;20404;-74
2021/03/09 00:31:21;;;;;;;19.58;7.75;;;-2.30;99.90;;;;;;5050514;28;20135;-75
2021/03/09 00:33:47;;;;;;;15.85;6.82;;;-2.40;99.90;;;;;;5064661;28;20029;-74
2021/03/09 00:36:12;;;;;;;21.20;7.88;;;-2.40;99.90;;;;;;5047202;28;20546;-75
2021/03/09 00:38:38;;;;;;;19.05;8.63;;;-2.40;99.90;;;;;;5083155;28;20061;-75
2021/03/09 00:41:04;;;;;;;20.17;7.40;;;-2.40;99.90;;;;;;5049858;28;20052;-75
2021/03/09 00:43:29;;;;;;;21.95;8.10;;;-2.50;99.90;;;;;;5050906;28;20372;-75
2021/03/09 00:45:55;;;;;;;16.33;7.72;;;-2.50;99.90;;;;;;5051075;28;20075;-74
2021/03/09 00:48:21;;;;;;;15.45;7.25;;;-2.50;99.90;;;;;;5050163;28;20037;-75
2021/03/09 00:50:46;;;;;;;17.58;7.68;;;-2.50;99.90;;;;;;5050181;28;20037;-75
2021/03/09 00:53:12;;;;;;;15.55;7.53;;;-2.50;99.90;;;;;;5050949;28;20033;-75
2021/03/09 00:55:38;;;;;;;19.42;8.38;;;-2.50;99.90;;;;;;5050756;28;20122;-75
2021/03/09 00:58:04;;;;;;;17.83;7.55;;;-2.50;99.90;;;;;;5050089;28;20068;-74
2021/03/09 01:00:31;;;;;;;18.00;8.18;;;-2.50;99.90;;;;;;5050302;28;20032;-75
2021/03/09 01:02:57;;;;;;;16.20;7.72;;;-2.50;99.90;;;;;;5050432;28;20032;-75
2021/03/09 01:05:24;;;;;;;15.90;7.80;;;-2.50;99.90;;;;;;5050628;28;20100;-74
2021/03/09 01:07:50;;;;;;;18.92;8.77;;;-2.60;99.90;;;;;;5048970;28;20029;-74
2021/03/09 01:10:17;;;;;;;15.10;7.78;;;-2.60;99.90;;;;;;5050096;28;20044;-74
2021/03/09 01:12:43;;;;;;;18.25;8.68;;;-2.60;99.90;;;;;;5050148;28;20040;-75
2021/03/09 01:15:10;;;;;;;19.75;9.05;;;-2.60;99.90;;;;;;5050661;28;20029;-75
2021/03/09 01:17:36;;;;;;;16.65;7.85;;;-2.60;99.90;;;;;;5049733;28;20029;-75
2021/03/09 01:20:04;;;;;;;20.02;8.35;;;-2.60;99.90;;;;;;5050311;28;20033;-75
2021/03/09 01:22:30;;;;;;;14.27;7.28;;;-2.60;99.90;;;;;;5049805;28;20432;-74
2021/03/09 01:24:56;;;;;;;20.88;8.25;;;-2.70;99.90;;;;;;5053614;28;20060;-75
2021/03/09 01:27:22;;;;;;;18.88;8.60;;;-2.70;99.90;;;;;;5056292;28;20025;-75
2021/03/09 01:29:47;;;;;;;25.77;8.48;;;-2.70;99.90;;;;;;5055737;28;20028;-75
2021/03/09 01:32:13;;;;;;;17.00;7.95;;;-2.60;99.90;;;;;;5056372;28;20032;-75
2021/03/09 01:34:38;;;;;;;17.48;8.48;;;-2.70;99.90;;;;;;5057070;28;20036;-74
2021/03/09 01:37:04;;;;;;;20.58;8.93;;;-2.70;99.90;;;;;;5056403;28;20403;-75
2021/03/09 01:39:31;;;;;;;21.83;8.93;;;-2.70;99.90;;;;;;5056715;28;20108;-75
2021/03/09 01:41:57;;;;;;;17.83;8.93;;;-2.70;99.90;;;;;;5056057;28;20747;-75
2021/03/09 01:44:24;;;;;;;15.63;7.43;;;-2.70;99.90;;;;;;5056855;28;20031;-75
2021/03/09 01:46:50;;;;;;;17.60;7.43;;;-2.70;99.90;;;;;;5056182;28;20033;-75
2021/03/09 01:49:17;;;;;;;17.00;7.88;;;-2.80;99.90;;;;;;5056856;28;20119;-75
2021/03/09 01:51:43;;;;;;;17.92;8.00;;;-2.70;99.90;;;;;;5056174;28;20400;-75
2021/03/09 01:54:13;;;;;;;17.05;8.30;;;-2.70;99.90;;;;;;5055487;28;20182;-75
2021/03/09 01:56:41;;;;;;;21.00;7.53;;;-2.70;99.90;;;;;;5055732;28;20114;-74
2021/03/09 01:59:07;;;;;;;19.38;8.25;;;-2.70;99.90;;;;;;5054433;28;20381;-74
2021/03/09 02:01:34;;;;;;;15.63;7.90;;;-2.80;99.90;;;;;;5053176;28;20029;-74
2021/03/09 02:04:00;;;;;;;20.13;8.73;;;-2.70;99.90;;;;;;5055915;28;20036;-74
2021/03/09 02:06:26;;;;;;;18.27;8.73;;;-2.70;99.90;;;;;;5056043;28;20017;-74
2021/03/09 02:08:52;;;;;;;17.50;7.65;;;-2.80;99.90;;;;;;5056328;28;20047;-74
2021/03/09 02:11:45;;;;;;;14.00;7.82;;;-2.80;99.90;;;;;;5055822;28;20276;-74
2021/03/09 02:14:27;;;;;;;18.10;8.20;;;-2.80;99.90;;;;;;5056533;28;20033;-74
2021/03/09 02:17:25;;;;;;;15.95;7.70;;;-2.80;99.90;;;;;;5056012;28;20070;-74
2021/03/09 02:20:26;;;;;;;17.80;8.05;;;-2.80;99.90;;;;;;5056325;28;20111;-74
2021/03/09 02:23:07;;;;;;;15.02;7.57;;;-2.80;99.90;;;;;;5039391;28;20126;-74
2021/03/09 02:25:54;;;;;;;18.33;7.78;;;-2.80;99.90;;;;;;5056459;28;20369;-74
2021/03/09 02:28:43;;;;;;;23.58;8.85;;;-2.80;99.90;;;;;;5055557;28;20036;-74
2021/03/09 02:31:09;;;;;;;19.33;8.57;;;-2.80;99.90;;;;;;5055622;28;20526;-74
2021/03/09 02:33:42;;;;;;;17.05;7.85;;;-2.80;99.90;;;;;;5056477;28;20043;-74
2021/03/09 02:36:13;;;;;;;14.68;7.57;;;-2.80;99.90;;;;;;5053771;28;20048;-74
2021/03/09 02:38:49;;;;;;;16.20;7.30;;;-2.80;99.90;;;;;;5052537;28;20033;-74
2021/03/09 02:41:16;;;;;;;19.42;8.38;;;-2.90;99.90;;;;;;5050866;28;20403;-74
2021/03/09 02:43:45;;;;;;;17.00;8.63;;;-2.90;99.90;;;;;;5053111;28;20090;-74
2021/03/09 02:46:12;;;;;;;18.75;7.60;;;-2.80;99.90;;;;;;5052465;28;20106;-74
2021/03/09 02:48:39;;;;;;;17.73;8.27;;;-2.90;99.90;;;;;;5051388;28;20033;-74
2021/03/09 02:51:06;;;;;;;17.25;7.38;;;-2.80;99.90;;;;;;5052181;28;20036;-74
2021/03/09 02:53:34;;;;;;;15.30;7.32;;;-2.80;99.90;;;;;;5052857;28;20128;-74
2021/03/09 02:56:03;;;;;;;17.20;7.55;;;-2.80;99.90;;;;;;5052262;28;20033;-74
2021/03/09 02:58:30;;;;;;;19.02;7.95;;;-2.80;99.90;;;;;;5050969;28;20041;-74
2021/03/09 03:00:57;;;;;;;19.90;7.90;;;-2.80;99.90;;;;;;5052036;28;20675;-74
2021/03/09 03:03:23;;;;;;;19.80;7.97;;;-2.80;99.90;;;;;;5052585;28;20446;-74
2021/03/09 03:05:50;;;;;;;16.35;7.88;;;-2.80;99.90;;;;;;5052460;28;20098;-74
2021/03/09 03:08:16;;;;;;;14.65;7.03;;;-2.80;99.90;;;;;;5051613;28;20025;-74
2021/03/09 03:10:46;;;;;;;13.27;6.90;;;-2.80;99.90;;;;;;5050397;28;20147;-74
2021/03/09 03:13:13;;;;;;;16.45;7.45;;;-2.80;99.90;;;;;;5052570;28;20033;-74
2021/03/09 03:15:41;;;;;;;16.38;7.55;;;-2.80;99.90;;;;;;5051293;28;20045;-74
2021/03/09 03:18:12;;;;;;;16.42;7.07;;;-2.80;99.90;;;;;;5051753;28;20033;-74
2021/03/09 03:20:40;;;;;;;15.98;7.57;;;-2.80;99.90;;;;;;5051505;28;20037;-74
2021/03/09 03:23:07;;;;;;;12.35;6.65;;;-2.80;99.90;;;;;;5052397;28;20043;-74
2021/03/09 03:25:34;;;;;;;20.63;7.78;;;-2.80;99.90;;;;;;5051876;28;20025;-74
2021/03/09 03:28:02;;;;;;;17.17;7.97;;;-2.80;99.90;;;;;;5050420;28;20426;-73
2021/03/09 03:30:28;;;;;;;16.63;7.03;;;-2.80;99.90;;;;;;5051578;28;20053;-73
2021/03/09 03:32:54;;;;;;;16.60;7.50;;;-2.70;99.90;;;;;;5051792;28;20044;-74
2021/03/09 03:35:20;;;;;;;20.02;8.32;;;-2.70;99.90;;;;;;5051971;28;20086;-74
2021/03/09 03:37:46;;;;;;;21.98;7.82;;;-2.80;99.90;;;;;;5051201;28;20037;-74
2021/03/09 03:40:17;;;;;;;17.85;7.70;;;-2.70;99.90;;;;;;5051815;28;20033;-74
2021/03/09 03:42:44;;;;;;;15.05;7.32;;;-2.70;99.90;;;;;;5051319;28;20048;-74
2021/03/09 03:45:12;;;;;;;16.45;7.57;;;-2.70;99.90;;;;;;5051917;28;20044;-74
2021/03/09 03:47:39;;;;;;;15.38;7.28;;;-2.70;99.90;;;;;;5049769;28;20029;-74
2021/03/09 03:50:08;;;;;;;17.73;7.22;;;-2.70;99.90;;;;;;5051826;28;20031;-74
2021/03/09 03:52:59;;;;;;;17.27;7.68;;;-2.70;99.90;;;;;;5051028;28;20064;-74
2021/03/09 03:55:46;;;;;;;14.80;7.63;;;-2.70;99.90;;;;;;5050190;28;20100;-74
2021/03/09 03:58:21;;;;;;;17.52;7.10;;;-2.70;99.90;;;;;;5051104;28;20025;-73
2021/03/09 04:00:48;;;;;;;20.30;7.68;;;-2.70;99.90;;;;;;5050764;28;20119;-74
2021/03/09 04:03:15;;;;;;;16.38;7.20;;;-2.70;99.90;;;;;;5051386;28;20017;-74
2021/03/09 04:05:47;;;;;;;18.02;8.98;;;-2.70;99.90;;;;;;5051502;28;20613;-74
2021/03/09 04:08:15;;;;;;;22.75;8.00;;;-2.70;99.90;;;;;;5050306;28;20025;-73
2021/03/09 04:10:42;;;;;;;14.13;6.95;;;-2.60;99.90;;;;;;5050426;28;20530;-74
2021/03/09 04:13:08;;;;;;;17.52;7.22;;;-2.60;99.90;;;;;;5051416;28;20041;-74
2021/03/09 04:15:35;;;;;;;16.55;7.55;;;-2.60;99.90;;;;;;5051414;28;20051;-74
2021/03/09 04:18:06;;;;;;;15.75;6.72;;;-2.60;99.90;;;;;;5050532;28;20048;-74
2021/03/09 04:20:34;;;;;;;13.40;7.03;;;-2.60;99.90;;;;;;5050473;28;20052;-74
2021/03/09 04:23:01;;;;;;;13.75;7.55;;;-2.60;99.90;;;;;;5050046;28;20025;-74
2021/03/09 04:25:27;;;;;;;15.07;7.63;;;-2.60;99.90;;;;;;5050827;28;20415;-74
2021/03/09 04:27:53;;;;;;;15.60;7.40;;;-2.60;99.90;;;;;;5050448;28;20029;-73
2021/03/09 04:30:20;;;;;;;17.65;8.05;;;-2.60;99.90;;;;;;5050927;28;20118;-73
2021/03/09 04:32:45;;;;;;;13.35;7.10;;;-2.60;99.90;;;;;;5050331;28;20033;-73
2021/03/09 04:35:11;;;;;;;12.45;7.05;;;-2.60;99.90;;;;;;5050924;28;20033;-74
2021/03/09 04:37:39;;;;;;;18.20;7.32;;;-2.60;99.90;;;;;;5048673;28;20663;-74
2021/03/09 04:40:06;;;;;;;14.68;7.32;;;-2.60;99.90;;;;;;5049459;28;20040;-74
2021/03/09 04:42:33;;;;;;;17.98;7.65;;;-2.60;99.90;;;;;;5050055;28;20029;-74
2021/03/09 04:44:58;;;;;;;13.95;6.07;;;-2.60;99.90;;;;;;5048448;28;20043;-73
2021/03/09 04:47:24;;;;;;;17.35;7.30;;;-2.60;99.90;;;;;;5047754;28;20033;-74
2021/03/09 04:49:55;;;;;;;16.02;7.10;;;-2.60;99.90;;;;;;5049713;28;20418;-74
2021/03/09 04:52:22;;;;;;;16.48;7.57;;;-2.60;99.90;;;;;;5050187;28;20041;-74
2021/03/09 04:54:48;;;;;;;16.98;7.50;;;-2.50;99.90;;;;;;5050345;28;20048;-73
2021/03/09 04:57:13;;;;;;;16.90;7.40;;;-2.50;99.90;;;;;;5049917;28;20040;-74
2021/03/09 04:59:39;;;;;;;14.00;7.00;;;-2.50;99.90;;;;;;5049999;28;20127;-74
2021/03/09 05:02:04;;;;;;;19.10;7.22;;;-2.50;99.90;;;;;;5049507;28;20067;-74
2021/03/09 05:04:30;;;;;;;19.25;7.85;;;-2.50;99.90;;;;;;5050311;28;20036;-74
2021/03/09 05:06:56;;;;;;;15.68;6.70;;;-2.50;99.90;;;;;;5049472;28;20113;-74
2021/03/09 05:09:21;;;;;;;16.58;6.80;;;-2.60;99.90;;;;;;5050383;28;20037;-74
2021/03/09 05:11:47;;;;;;;12.23;6.72;;;-2.60;99.90;;;;;;5049619;28;20086;-74
2021/03/09 05:14:13;;;;;;;19.17;7.53;;;-2.50;99.90;;;;;;5050403;28;20396;-73
2021/03/09 05:16:38;;;;;;;20.00;8.15;;;-2.60;99.90;;;;;;5048425;28;20094;-74
2021/03/09 05:19:04;;;;;;;20.20;8.43;;;-2.50;99.90;;;;;;5050262;28;20136;-74
2021/03/09 05:21:30;;;;;;;17.00;8.13;;;-2.60;99.90;;;;;;5049524;28;20040;-74
2021/03/09 05:23:56;;;;;;;17.27;8.40;;;-2.60;99.90;;;;;;5044443;28;20453;-74
2021/03/09 05:26:22;;;;;;;18.02;7.38;;;-2.60;99.90;;;;;;5029746;28;20026;-73
2021/03/09 05:28:48;;;;;;;18.27;7.97;;;-2.60;99.90;;;;;;5030396;28;20037;-74
2021/03/09 05:31:14;;;;;;;15.45;7.22;;;-2.60;99.90;;;;;;5029507;28;20595;-74
2021/03/09 05:33:40;;;;;;;16.35;7.50;;;-2.60;99.90;;;;;;5030125;28;20033;-74
2021/03/09 05:36:06;;;;;;;15.70;7.30;;;-2.60;99.90;;;;;;5063426;28;20112;-74
2021/03/09 05:38:32;;;;;;;19.88;8.65;;;-2.60;99.90;;;;;;5046420;28;20166;-74
2021/03/09 05:41:01;;;;;;;17.55;8.45;;;-2.50;99.90;;;;;;5080998;28;20143;-73
2021/03/09 05:43:27;;;;;;;21.88;8.77;;;-2.50;99.90;;;;;;5044790;28;20037;-74
2021/03/09 05:45:56;;;;;;;18.60;8.43;;;-2.50;99.90;;;;;;5050010;28;20028;-74
2021/03/09 05:48:21;;;;;;;17.13;7.95;;;-2.60;99.90;;;;;;5049388;28;20040;-73
2021/03/09 05:50:47;;;;;;;17.98;8.43;;;-2.60;99.90;;;;;;5049231;28;20029;-74
2021/03/09 05:53:14;;;;;;;20.42;8.75;;;-2.50;99.90;;;;;;5049796;28;20029;-74
2021/03/09 05:55:40;;;;;;;20.17;7.85;;;-2.50;99.90;;;;;;5049784;28;20108;-74
2021/03/09 05:58:06;;;;;;;19.17;7.47;;;-2.50;99.90;;;;;;5049331;28;20029;-73
2021/03/09 06:00:31;;;;;;;15.13;7.22;;;-2.50;99.90;;;;;;5052076;28;20040;-73
2021/03/09 06:02:57;;;;;;;16.67;7.50;;;-2.50;99.90;;;;;;5048309;28;20025;-73
2021/03/09 06:05:23;;;;;;;18.38;6.65;;;-2.50;99.90;;;;;;5049662;28;20075;-74
2021/03/09 06:07:52;;;;;;;17.67;6.97;;;-2.40;99.90;;;;;;5049067;28;20116;-74
2021/03/09 06:10:20;;;;;;;17.38;7.28;;;-2.40;99.90;;;;;;5049517;28;20602;-73
2021/03/09 06:12:46;;;;;;;19.75;7.22;;;-2.40;99.90;;;;;;5052166;28;20037;-73
2021/03/09 06:15:12;;;;;;;17.27;6.72;;;-2.40;99.90;;;;;;5053494;28;20028;-76
2021/03/09 06:17:39;;;;;;;16.52;6.80;;;-2.40;99.90;;;;;;5061631;28;20902;-76
2021/03/09 06:20:17;;;;;;;17.20;7.25;;;-2.30;99.90;;;;;;5053606;28;20032;-76
2021/03/09 06:22:54;;;;;;;15.48;6.88;;;-2.30;99.90;;;;;;5049481;28;20112;-74
2021/03/09 06:25:31;;;;;;;14.57;7.07;;;-2.30;99.90;;;;;;5085314;28;20075;-74
2021/03/09 06:28:08;;;;;;;16.00;6.75;;;-2.20;99.90;;;;;;5052552;28;20038;-74
2021/03/09 06:30:41;;;;;;;14.30;7.18;;;-2.20;99.90;;;;;;5052603;28;20032;-74
2021/03/09 06:33:08;;;;;;;19.17;8.50;;;-2.10;99.90;;;;;;5053217;28;20041;-74
2021/03/09 06:35:43;;;;;;;20.00;8.38;;;-2.10;99.90;;;;;;5045734;28;20148;-74
2021/03/09 06:38:25;;;;;;;21.30;8.65;;;-2.00;99.90;;;;;;5051021;28;20347;-74
2021/03/09 06:41:14;;;;;;;16.08;7.28;;;-2.00;99.90;;;;;;5048252;28;20511;-74
2021/03/09 06:43:43;;;;;;;14.90;6.97;;;-1.90;99.90;;;;;;5052164;28;20032;-74
2021/03/09 06:46:20;;;;;;;15.65;7.70;;;-1.80;99.90;;;;;;5050785;28;20025;-74
2021/03/09 06:48:48;;;;;;;16.73;7.85;;;-1.80;99.90;;;;;;5046408;28;20022;-74
2021/03/09 06:51:29;;;;;;;17.23;7.97;;;-1.70;99.90;;;;;;5057280;28;20060;-74
2021/03/09 06:54:13;;;;;;;16.20;7.10;;;-1.70;99.90;;;;;;5052695;28;20039;-75
2021/03/09 06:56:41;;;;;;;15.45;7.22;;;-1.60;99.90;;;;;;5052111;28;20044;-75
2021/03/09 06:59:24;;;;;;;22.02;7.70;;;-1.50;99.90;;;;;;5052694;28;20549;-74
2021/03/09 07:02:34;;;;;;;17.55;7.57;;;-1.30;99.90;;;;;;5044710;28;20034;-75
2021/03/09 07:05:08;;;;;;;16.98;6.50;;;-1.20;99.90;;;;;;5051494;28;20411;-75
2021/03/09 07:07:41;;;;;;;17.83;7.33;;;-1.20;99.90;;;;;;5050207;28;20037;-75
2021/03/09 07:10:10;;;;;;;13.88;7.30;;;-1.10;99.90;;;;;;5052501;28;20115;-74
2021/03/09 07:12:39;;;;;;;18.05;7.60;;;-1.00;99.90;;;;;;5051863;28;20138;-74
2021/03/09 07:15:09;;;;;;;17.25;7.65;;;-0.90;99.90;;;;;;5052268;28;20112;-75
2021/03/09 07:17:36;;;;;;;16.75;7.72;;;-0.80;99.90;;;;;;5051329;28;20119;-75
2021/03/09 07:20:04;;;;;;;14.60;7.25;;;-0.70;99.90;;;;;;5051782;28;20020;-75
2021/03/09 07:22:30;;;;;;;16.73;7.32;;;-0.60;99.90;;;;;;5048081;28;20033;-75
2021/03/09 07:25:14;;;;;;;15.80;7.03;;;-0.50;99.90;;;;;;5051923;28;20036;-75
2021/03/09 07:28:01;;;;;;;17.00;8.05;;;-0.40;99.90;;;;;;5050136;28;20029;-75
2021/03/09 07:30:30;;;;;;;11.48;6.05;;;-0.20;99.90;;;;;;5051179;28;20037;-75
2021/03/09 07:32:58;;;;;;;15.13;7.88;;;-0.10;99.90;;;;;;5051926;28;20107;-75
2021/03/09 07:35:29;;;;;;;16.67;7.63;;;0.00;99.90;;;;;;5051376;28;20041;-75
2021/03/09 07:37:56;;;;;;;16.83;7.43;;;0.10;99.90;;;;;;5050978;28;20458;-75
2021/03/09 07:40:29;;;;;;;16.27;7.45;;;0.30;99.90;;;;;;5048498;28;20082;-75
2021/03/09 07:42:56;;;;;;;18.20;7.35;;;0.40;99.90;;;;;;5049715;28;20064;-75
2021/03/09 07:45:28;;;;;;;20.17;7.50;;;0.50;99.90;;;;;;5051433;28;20020;-75
2021/03/09 07:48:01;;;;;;;16.23;7.82;;;0.80;99.90;;;;;;5048974;28;20063;-75
2021/03/09 07:50:35;;;;;;;20.85;8.55;;;1.00;99.90;;;;;;5050716;28;20513;-74
2021/03/09 07:53:15;;;;;;;20.30;7.97;;;1.20;99.90;;;;;;5051506;28;20545;-75
2021/03/09 07:55:41;;;;;;;17.92;8.15;;;1.30;99.90;;;;;;5048868;28;20442;-75
2021/03/09 07:58:19;;;;;;;17.73;8.25;;;1.50;99.90;;;;;;5049633;28;20044;-75
2021/03/09 08:00:53;;;;;;;18.95;8.30;;;1.60;99.90;;;;;;5048144;28;20074;-75
2021/03/09 08:03:21;;;;;;;16.75;8.20;;;1.60;99.90;;;;;;5050228;28;20048;-75
2021/03/09 08:05:55;;;;;;;19.75;8.10;;;1.90;99.90;;;;;;5050898;28;20032;-75
2021/03/09 08:08:46;;;;;;;18.60;8.35;;;2.10;99.90;;;;;;5050415;28;20021;-75
2021/03/09 08:11:14;;;;;;;14.57;6.90;;;2.40;99.90;;;;;;5047862;28;20064;-75
2021/03/09 08:13:41;;;;;;;22.80;9.57;;;2.60;99.90;;;;;;5050949;28;20033;-75
2021/03/09 08:16:26;;;;;;;19.52;9.40;;;2.80;99.90;;;;;;5050507;28;20033;-75
2021/03/09 08:18:56;;;;;;;23.88;9.15;;;2.90;99.90;;;;;;5047413;28;20079;-75
2021/03/09 08:21:40;;;;;;;16.13;8.32;;;2.70;99.90;;;;;;5082112;28;20040;-75
2021/03/09 08:24:09;;;;;;;22.30;10.15;;;2.70;99.90;;;;;;5050283;28;20017;-75
2021/03/09 08:26:35;;;;;;;18.50;8.73;;;2.60;99.90;;;;;;5049563;28;20100;-75
2021/03/09 08:29:01;;;;;;;27.55;11.20;;;2.40;99.90;;;;;;5050540;28;20100;-75
2021/03/09 08:31:27;;;;;;;24.77;10.65;;;2.30;99.90;;;;;;5050007;28;20131;-75
2021/03/09 08:34:13;;;;;;;26.30;10.98;;;2.30;99.90;;;;;;5049683;28;20551;-75
2021/03/09 08:36:39;;;;;;;24.27;10.30;;;2.20;99.90;;;;;;5048382;28;20041;-75
2021/03/09 08:39:09;;;;;;;24.02;12.15;;;2.00;99.90;;;;;;5048017;28;20039;-75
2021/03/09 08:41:34;;;;;;;30.23;13.73;;;2.00;99.90;;;;;;5049545;28;20099;-74
2021/03/09 08:44:21;;;;;;;24.70;10.38;;;1.90;99.90;;;;;;5050488;28;20025;-75
2021/03/09 08:47:05;;;;;;;26.42;11.82;;;1.80;99.90;;;;;;5049373;28;20052;-74
2021/03/09 08:49:37;;;;;;;27.35;11.60;;;1.90;99.90;;;;;;5047513;28;20079;-75
2021/03/09 08:52:06;;;;;;;26.77;11.35;;;2.10;99.90;;;;;;5049526;28;20049;-76
2021/03/09 08:54:40;;;;;;;30.05;11.68;;;2.10;99.90;;;;;;5047930;28;20442;-75
2021/03/09 08:57:21;;;;;;;26.40;11.52;;;2.20;99.90;;;;;;5048486;28;20380;-75
2021/03/09 09:00:20;;;;;;;26.45;11.02;;;2.10;99.90;;;;;;5049822;28;20049;-75
2021/03/09 09:02:46;;;;;;;28.27;11.23;;;2.10;99.90;;;;;;5035565;28;20136;-75
2021/03/09 09:05:15;;;;;;;25.15;11.13;;;2.30;99.90;;;;;;5051278;28;20463;-75
2021/03/09 09:07:44;;;;;;;26.70;11.57;;;2.30;99.90;;;;;;5049210;28;20112;-75
2021/03/09 09:10:14;;;;;;;26.08;10.82;;;2.30;99.90;;;;;;5048651;28;20036;-75
2021/03/09 09:12:48;;;;;;;26.88;10.73;;;2.30;99.90;;;;;;5048230;28;20029;-74
2021/03/09 09:15:19;;;;;;;27.00;12.07;;;2.40;99.90;;;;;;5048369;28;20037;-74
2021/03/09 09:18:06;;;;;;;27.58;12.70;;;2.50;99.90;;;;;;5048037;28;20392;-74
2021/03/09 09:20:38;;;;;;;31.67;14.48;;;2.50;99.90;;;;;;5045351;28;20078;-74
2021/03/09 09:23:08;;;;;;;24.58;11.80;;;2.70;99.90;;;;;;5049587;28;20455;-74
2021/03/09 09:25:36;;;;;;;23.98;10.55;;;2.80;99.90;;;;;;5049814;28;20499;-74
2021/03/09 09:28:03;;;;;;;24.33;9.98;;;2.90;99.90;;;;;;5049030;28;20111;-74
2021/03/09 09:30:41;;;;;;;29.13;12.52;;;3.00;99.90;;;;;;5045487;28;20387;-74
2021/03/09 09:33:11;;;;;;;24.83;11.45;;;3.10;99.90;;;;;;5044680;28;20044;-73
2021/03/09 09:35:39;;;;;;;23.88;10.40;;;3.20;99.90;;;;;;5046410;28;20040;-73
2021/03/09 09:38:07;;;;;;;26.30;12.40;;;3.20;99.90;;;;;;5044574;28;20068;-74
2021/03/09 09:40:45;;;;;;;28.75;12.82;;;3.30;99.90;;;;;;5042437;28;20029;-73
2021/03/09 09:43:13;;;;;;;27.63;11.43;;;3.30;99.90;;;;;;5043461;28;20420;-73
2021/03/09 09:45:44;;;;;;;24.58;10.85;;;3.40;99.90;;;;;;5045654;28;20025;-73
2021/03/09 09:48:13;;;;;;;24.30;11.43;;;3.40;99.90;;;;;;5043922;28;20021;-74
2021/03/09 09:50:46;;;;;;;25.00;11.15;;;3.50;99.90;;;;;;5049181;28;20041;-74
2021/03/09 09:53:13;;;;;;;24.42;10.23;;;3.40;99.90;;;;;;5047562;28;20059;-74
2021/03/09 09:55:38;;;;;;;25.30;10.98;;;3.50;99.90;;;;;;5048055;28;20060;-72
2021/03/09 09:58:04;;;;;;;29.10;10.90;;;3.60;99.90;;;;;;5048154;28;20115;-74
2021/03/09 10:00:33;;;;;;;29.02;11.85;;;3.70;99.90;;;;;;5048874;28;20037;-73
2021/03/09 10:03:10;;;;;;;27.48;11.20;;;3.80;99.90;;;;;;5049851;28;20033;-74
2021/03/09 10:05:36;;;;;;;26.80;12.25;;;3.90;99.90;;;;;;5048702;28;20127;-74
2021/03/09 10:08:03;;;;;;;29.90;12.38;;;4.00;99.90;;;;;;5049124;28;20040;-74
2021/03/09 10:10:29;;;;;;;23.15;10.48;;;3.90;99.90;;;;;;5048542;28;20349;-75
2021/03/09 10:12:55;;;;;;;22.20;10.75;;;3.90;99.90;;;;;;5049769;28;20029;-75
2021/03/09 10:15:20;;;;;;;24.98;11.57;;;3.90;99.90;;;;;;5048265;28;20037;-74
2021/03/09 10:17:47;;;;;;;27.95;12.30;;;4.00;99.90;;;;;;5048426;28;20480;-74
2021/03/09 10:20:24;;;;;;;24.88;11.30;;;3.90;99.90;;;;;;5050008;28;20041;-74
2021/03/09 10:23:03;;;;;;;25.40;10.25;;;4.00;99.90;;;;;;5046736;28;20029;-75
2021/03/09 10:25:29;;;;;;;24.25;10.68;;;4.10;99.90;;;;;;5047022;28;20119;-76
2021/03/09 10:28:03;;;;;;;23.77;11.35;;;4.20;99.90;;;;;;5045914;28;20508;-74
2021/03/09 10:30:39;;;;;;;24.23;10.77;;;4.20;99.90;;;;;;5048291;28;20471;-75
2021/03/09 10:33:10;;;;;;;24.02;11.00;;;4.30;99.90;;;;;;5048071;28;20061;-76
2021/03/09 10:36:01;;;;;;;24.48;11.07;;;4.20;99.90;;;;;;5049780;28;20036;-74
2021/03/09 10:38:27;;;;;;;25.90;10.75;;;4.20;99.90;;;;;;5080284;28;20072;-75
2021/03/09 10:40:53;;;;;;;20.83;9.93;;;4.10;99.90;;;;;;5048768;28;20514;-72
2021/03/09 10:43:41;;;;;;;22.95;10.75;;;4.10;99.90;;;;;;5049345;28;20059;-74
2021/03/09 10:46:07;;;;;;;21.33;9.05;;;4.10;99.90;;;;;;5048640;28;20068;-72
2021/03/09 10:48:33;;;;;;;22.35;10.57;;;4.10;99.90;;;;;;5030900;28;20044;-75
2021/03/09 10:50:58;;;;;;;25.85;11.27;;;4.10;99.90;;;;;;5048814;28;20028;-74
2021/03/09 10:53:24;;;;;;;22.77;9.85;;;4.10;99.90;;;;;;5054124;28;20036;-75
2021/03/09 10:55:50;;;;;;;19.70;9.40;;;4.00;99.90;;;;;;5051508;28;20391;-74
2021/03/09 10:58:16;;;;;;;22.20;9.80;;;4.00;99.90;;;;;;5047063;28;20029;-72
2021/03/09 11:00:42;;;;;;;20.00;9.25;;;4.10;99.90;;;;;;5062685;28;20110;-74
2021/03/09 11:03:07;;;;;;;18.00;8.50;;;4.10;99.90;;;;;;5055722;28;20028;-73
2021/03/09 11:05:33;;;;;;;20.88;8.80;;;4.20;99.90;;;;;;5058973;28;20035;-74
2021/03/09 11:07:59;;;;;;;21.35;9.73;;;4.30;99.90;;;;;;5047115;28;20392;-74
2021/03/09 11:10:24;;;;;;;19.23;8.82;;;4.40;99.90;;;;;;5048170;28;20593;-74
2021/03/09 11:12:50;;;;;;;21.55;9.55;;;4.50;99.90;;;;;;5045986;28;20029;-74
2021/03/09 11:15:16;;;;;;;22.00;10.27;;;4.60;99.90;;;;;;5043082;28;20028;-74
2021/03/09 11:17:44;;;;;;;20.83;10.35;;;4.60;99.90;;;;;;5047573;28;20538;-73
2021/03/09 11:20:10;;;;;;;19.70;9.73;;;4.60;99.90;;;;;;5048047;28;20044;-74
2021/03/09 11:22:36;;;;;;;20.85;9.38;;;4.60;99.90;;;;;;5047032;28;20036;-72
2021/03/09 11:25:04;;;;;;;22.08;10.40;;;4.70;99.90;;;;;;5047569;28;20034;-72
2021/03/09 11:27:29;;;;;;;20.98;9.95;;;4.70;99.90;;;;;;5047053;28;20029;-75
2021/03/09 11:29:55;;;;;;;20.17;9.15;;;4.90;99.90;;;;;;5048182;28;20025;-75
2021/03/09 11:32:21;;;;;;;21.52;9.23;;;5.00;99.90;;;;;;5047762;28;20053;-74
2021/03/09 11:34:46;;;;;;;18.27;8.30;;;5.20;99.90;;;;;;5052798;28;20052;-74
2021/03/09 11:37:12;;;;;;;18.63;9.98;;;5.30;99.90;;;;;;5061455;28;20029;-73
2021/03/09 11:39:38;;;;;;;19.15;8.95;;;5.30;99.90;;;;;;5058574;28;20059;-73
2021/03/09 11:42:04;;;;;;;17.92;8.55;;;5.30;99.90;;;;;;5050037;28;20116;-75
2021/03/09 11:44:30;;;;;;;20.50;8.95;;;5.30;99.90;;;;;;5047893;28;20108;-74
2021/03/09 11:46:56;;;;;;;15.63;7.70;;;5.40;99.90;;;;;;5048888;28;20150;-75
2021/03/09 11:49:21;;;;;;;18.50;8.40;;;5.40;99.90;;;;;;5045761;28;20544;-73
2021/03/09 11:51:47;;;;;;;20.80;8.45;;;5.50;99.90;;;;;;5049966;28;20053;-75
2021/03/09 11:54:13;;;;;;;21.73;9.27;;;5.60;99.90;;;;;;5044051;28;20025;-74
2021/03/09 11:56:39;;;;;;;16.15;8.43;;;5.70;99.90;;;;;;5046187;28;20037;-72
2021/03/09 11:59:05;;;;;;;16.92;8.27;;;5.60;99.90;;;;;;5079445;28;20724;-74
2021/03/09 12:01:31;;;;;;;16.05;7.50;;;5.70;99.90;;;;;;5048781;28;20063;-74
2021/03/09 12:03:57;;;;;;;18.48;8.13;;;5.70;99.90;;;;;;5046343;28;20104;-73
2021/03/09 12:06:22;;;;;;;16.73;8.27;;;5.70;99.90;;;;;;5045968;28;20021;-75
2021/03/09 12:08:48;;;;;;;19.65;8.80;;;5.70;99.90;;;;;;5043312;28;20411;-73
2021/03/09 12:11:15;;;;;;;18.48;8.07;;;5.80;99.90;;;;;;5044528;28;20049;-74
2021/03/09 12:13:40;;;;;;;17.67;9.13;;;5.70;99.90;;;;;;5044630;28;20028;-74
2021/03/09 12:16:06;;;;;;;19.63;8.98;;;5.70;99.90;;;;;;5045768;28;20038;-73
2021/03/09 12:18:32;;;;;;;15.63;7.82;;;5.60;99.90;;;;;;5043389;28;20051;-73
2021/03/09 12:20:58;;;;;;;15.52;7.65;;;5.50;99.90;;;;;;5045453;28;20380;-74
2021/03/09 12:23:25;;;;;;;16.73;8.57;;;5.50;99.90;;;;;;5045463;28;20017;-75
2021/03/09 12:25:51;;;;;;;13.88;6.90;;;5.40;99.90;;;;;;5044803;28;20108;-74
2021/03/09 12:28:17;;;;;;;25.55;12.25;;;5.50;99.90;;;;;;5045291;28;20472;-75
2021/03/09 12:30:44;;;;;;;13.13;7.13;;;5.40;99.90;;;;;;5045600;28;20033;-74
2021/03/09 12:33:10;;;;;;;20.90;9.52;;;5.50;99.90;;;;;;5045799;28;20044;-74
2021/03/09 12:35:36;;;;;;;16.77;8.00;;;5.80;99.60;;;;;;5045036;28;20051;-73
2021/03/09 12:38:02;;;;;;;19.73;8.77;;;5.90;99.90;;;;;;5045508;28;20376;-74
2021/03/09 12:40:27;;;;;;;15.05;7.43;;;6.00;99.90;;;;;;5045507;28;20021;-74
2021/03/09 12:42:53;;;;;;;15.85;7.35;;;6.00;99.10;;;;;;5046483;28;20056;-72
2021/03/09 12:45:19;;;;;;;15.57;7.28;;;5.90;97.10;;;;;;5044535;28;20033;-75
2021/03/09 12:47:44;;;;;;;14.88;8.13;;;5.90;99.60;;;;;;5027233;28;20021;-74
2021/03/09 12:50:11;;;;;;;14.07;7.20;;;5.80;99.40;;;;;;5045544;28;20033;-75